Time;durP1;ratioP1;P1;durP2;ratioP2;P2;SDS_P1;SDS_P2;PMS_P1;PMS_P2;Temp;Humidity;BMP_temperature;BMP_pressure;BME280_temperature;BME280_humidity;BME280_pressure;Samples;Min_cycle;Max_cycle;Signal;HPM_P1;HPM_P2
2023/01/31 00:01:11;;;;;;;42.17;8.68;;;;;;;;;;7352848;19;20114;-76
2023/01/31 00:03:37;;;;;;;33.55;7.03;;;;;;;;;;7356449;19;20038;-76
2023/01/31 00:06:15;;;;;;;30.95;6.97;;;;;;;;;;7350947;19;20279;-76
2023/01/31 00:08:40;;;;;;;31.45;6.75;;;;;;;;;;7353749;19;20075;-76
2023/01/31 00:11:06;;;;;;;37.20;7.70;;;;;;;;;;7358141;19;20129;-76
2023/01/31 00:13:31;;;;;;;29.02;6.60;;;;;;;;;;7358472;19;20002;-77
2023/01/31 00:15:57;;;;;;;28.00;6.13;;;;;;;;;;7359120;19;20026;-76
2023/01/31 00:18:22;;;;;;;36.50;7.80;;;;;;;;;;7358396;19;20442;-78
2023/01/31 00:20:47;;;;;;;31.30;7.47;;;;;;;;;;7351969;19;20440;-77
2023/01/31 00:23:12;;;;;;;36.58;7.65;;;;;;;;;;7361460;19;20011;-76
2023/01/31 00:25:38;;;;;;;35.45;7.65;;;;;;;;;;7355552;19;20364;-77
2023/01/31 00:28:03;;;;;;;35.22;8.23;;;;;;;;;;7359481;19;20019;-76
2023/01/31 00:30:28;;;;;;;39.53;7.47;;;;;;;;;;7366087;19;20086;-78
2023/01/31 00:32:53;;;;;;;33.88;7.15;;;;;;;;;;7373732;19;20014;-76
2023/01/31 00:35:19;;;;;;;47.40;9.20;;;;;;;;;;7368776;19;20584;-77
2023/01/31 00:37:44;;;;;;;37.20;7.53;;;;;;;;;;7372375;19;20563;-76
2023/01/31 00:40:09;;;;;;;40.50;7.30;;;;;;;;;;7371635;19;20014;-76
2023/01/31 00:42:34;;;;;;;36.05;7.70;;;;;;;;;;7367418;19;20011;-76
2023/01/31 00:45:01;;;;;;;42.15;7.65;;;;;;;;;;7371642;19;20459;-75
2023/01/31 00:47:26;;;;;;;44.17;7.63;;;;;;;;;;7371062;19;20382;-76
2023/01/31 00:49:51;;;;;;;33.85;7.03;;;;;;;;;;7358595;19;20006;-79
2023/01/31 00:52:16;;;;;;;32.50;7.35;;;;;;;;;;7257315;19;20410;-79
2023/01/31 00:54:42;;;;;;;39.95;8.38;;;;;;;;;;7270643;19;20094;-78
2023/01/31 00:57:07;;;;;;;33.30;7.70;;;;;;;;;;7277110;19;20313;-79
2023/01/31 00:59:32;;;;;;;38.28;7.60;;;;;;;;;;7275343;19;20019;-79
2023/01/31 01:01:57;;;;;;;31.02;7.90;;;;;;;;;;7286751;19;20002;-79
2023/01/31 01:04:23;;;;;;;31.33;7.68;;;;;;;;;;7298571;19;20502;-79
2023/01/31 01:06:49;;;;;;;34.38;7.63;;;;;;;;;;7287854;19;20115;-78
2023/01/31 01:09:14;;;;;;;33.42;7.40;;;;;;;;;;7282838;19;20014;-78
2023/01/31 01:11:40;;;;;;;36.03;7.60;;;;;;;;;;7273773;19;20585;-79
2023/01/31 01:14:05;;;;;;;29.77;7.07;;;;;;;;;;7279290;19;20014;-79
2023/01/31 01:16:32;;;;;;;32.88;7.07;;;;;;;;;;7273657;19;20014;-79
2023/01/31 01:18:59;;;;;;;31.50;6.90;;;;;;;;;;7269574;19;20018;-79
2023/01/31 01:21:26;;;;;;;39.75;8.07;;;;;;;;;;7262165;19;20074;-78
2023/01/31 01:23:52;;;;;;;30.00;7.45;;;;;;;;;;7264328;19;20782;-79
2023/01/31 01:26:22;;;;;;;39.75;8.02;;;;;;;;;;7275313;19;20338;-78
2023/01/31 01:28:47;;;;;;;32.40;7.65;;;;;;;;;;7271420;19;20690;-77
2023/01/31 01:31:15;;;;;;;34.85;7.25;;;;;;;;;;7273894;19;20310;-79
2023/01/31 01:33:40;;;;;;;30.75;7.63;;;;;;;;;;7268233;19;20033;-79
2023/01/31 01:36:06;;;;;;;33.83;8.63;;;;;;;;;;7272315;19;20301;-77
2023/01/31 01:38:35;;;;;;;37.58;7.80;;;;;;;;;;7278456;19;20363;-78
2023/01/31 01:41:01;;;;;;;29.15;6.85;;;;;;;;;;7272535;19;20459;-79
2023/01/31 01:43:45;;;;;;;36.17;7.18;;;;;;;;;;7269987;19;20150;-79
2023/01/31 01:46:30;;;;;;;40.85;7.95;;;;;;;;;;7265063;19;20550;-79
2023/01/31 01:49:18;;;;;;;37.58;8.05;;;;;;;;;;7270806;19;20400;-78
2023/01/31 01:51:43;;;;;;;32.95;6.90;;;;;;;;;;7339592;19;20539;-77
2023/01/31 01:54:12;;;;;;;42.05;6.95;;;;;;;;;;7364820;19;20007;-79
2023/01/31 01:56:39;;;;;;;37.00;7.07;;;;;;;;;;7341055;19;20034;-81
2023/01/31 01:59:08;;;;;;;35.05;7.47;;;;;;;;;;7360799;19;20562;-77
2023/01/31 02:01:34;;;;;;;38.22;6.85;;;;;;;;;;7352781;19;20112;-78
2023/01/31 02:03:59;;;;;;;36.72;7.72;;;;;;;;;;7344109;19;20019;-79
2023/01/31 02:06:24;;;;;;;32.30;6.53;;;;;;;;;;7355879;19;20025;-80
2023/01/31 02:08:50;;;;;;;37.72;7.68;;;;;;;;;;7363252;19;20007;-79
2023/01/31 02:11:29;;;;;;;47.22;8.15;;;;;;;;;;7366845;19;19991;-79
2023/01/31 02:14:02;;;;;;;46.53;8.25;;;;;;;;;;7368906;19;20026;-77
2023/01/31 02:16:28;;;;;;;39.43;7.40;;;;;;;;;;7361481;19;20010;-77
2023/01/31 02:18:53;;;;;;;38.97;7.68;;;;;;;;;;7360666;19;20247;-77
2023/01/31 02:21:18;;;;;;;38.92;7.28;;;;;;;;;;7363179;19;20014;-77
2023/01/31 02:23:56;;;;;;;41.17;8.20;;;;;;;;;;7362836;19;20701;-77
2023/01/31 02:26:49;;;;;;;36.30;6.95;;;;;;;;;;7367012;19;20082;-78
2023/01/31 02:29:17;;;;;;;40.95;8.90;;;;;;;;;;7368679;19;20022;-76
2023/01/31 02:32:01;;;;;;;34.90;9.13;;;;;;;;;;7361556;19;20085;-77
2023/01/31 02:34:26;;;;;;;45.42;8.82;;;;;;;;;;7360501;19;20006;-79
2023/01/31 02:36:54;;;;;;;42.53;8.73;;;;;;;;;;7363215;19;20530;-77
2023/01/31 02:39:35;;;;;;;33.28;8.10;;;;;;;;;;7362892;19;20002;-78
2023/01/31 02:42:14;;;;;;;38.75;8.48;;;;;;;;;;7362223;19;20014;-78
2023/01/31 02:44:58;;;;;;;39.20;7.80;;;;;;;;;;7364150;19;20066;-77
2023/01/31 02:47:32;;;;;;;39.58;10.05;;;;;;;;;;7307400;19;20551;-78
2023/01/31 02:50:09;;;;;;;37.30;9.70;;;;;;;;;;7276058;19;20741;-81
2023/01/31 02:52:42;;;;;;;38.22;9.38;;;;;;;;;;7283134;19;20403;-77
2023/01/31 02:57:57;;;;;;;58.75;14.25;;;;;;;;;;7289096;19;20529;-78
2023/01/31 03:00:22;;;;;;;62.50;16.50;;;;;;;;;;7292184;19;20331;-78
2023/01/31 03:02:48;;;;;;;61.47;16.85;;;;;;;;;;7286143;19;20049;-78
2023/01/31 03:05:14;;;;;;;68.65;16.98;;;;;;;;;;7284681;19;20370;-78
2023/01/31 03:07:41;;;;;;;84.35;19.20;;;;;;;;;;7273352;19;20357;-78
2023/01/31 03:10:06;;;;;;;69.70;19.05;;;;;;;;;;7277190;19;20025;-80
2023/01/31 03:12:32;;;;;;;82.95;20.52;;;;;;;;;;7276535;19;20281;-80
2023/01/31 03:14:57;;;;;;;78.40;21.63;;;;;;;;;;7279667;19;20635;-77
2023/01/31 03:17:32;;;;;;;67.80;19.65;;;;;;;;;;7280788;19;20019;-78
2023/01/31 03:20:12;;;;;;;78.38;20.42;;;;;;;;;;7270040;19;20267;-77
2023/01/31 03:22:43;;;;;;;75.70;21.65;;;;;;;;;;7273659;19;20311;-80
2023/01/31 03:25:10;;;;;;;76.00;22.75;;;;;;;;;;7276447;19;20003;-78
2023/01/31 03:27:38;;;;;;;81.85;22.27;;;;;;;;;;7275537;19;20112;-79
2023/01/31 03:30:07;;;;;;;100.32;23.42;;;;;;;;;;7272030;19;20013;-79
2023/01/31 03:32:35;;;;;;;88.05;22.67;;;;;;;;;;7265329;19;20073;-78
2023/01/31 03:35:00;;;;;;;86.97;21.67;;;;;;;;;;7276741;19;20021;-79
2023/01/31 03:37:36;;;;;;;77.95;22.63;;;;;;;;;;7272104;19;20631;-78
2023/01/31 03:40:01;;;;;;;74.55;22.25;;;;;;;;;;7273503;19;20075;-79
2023/01/31 03:42:33;;;;;;;87.10;22.48;;;;;;;;;;7278234;19;20656;-79
2023/01/31 03:45:03;;;;;;;77.93;22.50;;;;;;;;;;7271128;19;20022;-79
2023/01/31 03:47:40;;;;;;;77.03;22.10;;;;;;;;;;7333935;19;20126;-76
2023/01/31 03:50:18;;;;;;;74.32;21.67;;;;;;;;;;7350467;19;20025;-80
2023/01/31 03:52:48;;;;;;;77.05;22.63;;;;;;;;;;7363105;19;20074;-77
2023/01/31 03:55:15;;;;;;;85.38;21.67;;;;;;;;;;7367492;19;20038;-77
2023/01/31 03:57:42;;;;;;;75.20;22.48;;;;;;;;;;7364803;19;20427;-77
2023/01/31 04:00:08;;;;;;;83.95;21.40;;;;;;;;;;7365462;19;20115;-79
2023/01/31 04:02:35;;;;;;;86.25;22.80;;;;;;;;;;7361586;19;20307;-78
2023/01/31 04:05:05;;;;;;;66.63;20.55;;;;;;;;;;7380258;19;20018;-79
2023/01/31 04:07:30;;;;;;;66.40;19.70;;;;;;;;;;7383123;19;20020;-77
2023/01/31 04:09:56;;;;;;;74.95;21.70;;;;;;;;;;7375240;19;20062;-78
2023/01/31 04:12:21;;;;;;;69.68;20.83;;;;;;;;;;7381511;19;20017;-78
2023/01/31 04:14:46;;;;;;;68.10;19.90;;;;;;;;;;7379383;19;20106;-77
2023/01/31 04:17:12;;;;;;;69.63;19.92;;;;;;;;;;7374382;19;20027;-78
2023/01/31 04:19:37;;;;;;;56.58;19.40;;;;;;;;;;7378428;19;20322;-77
2023/01/31 04:22:02;;;;;;;55.58;19.38;;;;;;;;;;7379820;19;20114;-78
2023/01/31 04:24:27;;;;;;;75.35;21.45;;;;;;;;;;7380537;19;20018;-77
2023/01/31 04:26:52;;;;;;;66.40;20.45;;;;;;;;;;7364584;19;20034;-75
2023/01/31 04:29:18;;;;;;;62.50;20.20;;;;;;;;;;7376490;19;20040;-76
2023/01/31 04:31:43;;;;;;;66.97;18.08;;;;;;;;;;7373349;19;20422;-76
2023/01/31 04:34:08;;;;;;;60.17;17.85;;;;;;;;;;7379352;19;20335;-77
2023/01/31 04:36:33;;;;;;;68.93;18.90;;;;;;;;;;7376954;19;20455;-77
2023/01/31 04:39:02;;;;;;;61.28;16.90;;;;;;;;;;7370607;19;20021;-77
2023/01/31 04:41:27;;;;;;;70.68;18.90;;;;;;;;;;7371235;19;20352;-79
2023/01/31 04:43:52;;;;;;;65.00;18.48;;;;;;;;;;7373317;19;20018;-77
2023/01/31 04:46:17;;;;;;;59.33;18.65;;;;;;;;;;7373360;19;20010;-77
2023/01/31 04:48:43;;;;;;;64.53;17.63;;;;;;;;;;7379935;19;20408;-77
2023/01/31 04:51:08;;;;;;;66.03;18.55;;;;;;;;;;7373934;19;20578;-76
2023/01/31 04:53:33;;;;;;;53.58;17.30;;;;;;;;;;7372375;19;20025;-76
2023/01/31 04:55:59;;;;;;;59.22;18.27;;;;;;;;;;7350246;19;20042;-77
2023/01/31 04:58:24;;;;;;;55.15;16.67;;;;;;;;;;7372065;19;20395;-77
2023/01/31 05:00:49;;;;;;;55.90;16.55;;;;;;;;;;7368939;19;20107;-77
2023/01/31 05:03:14;;;;;;;63.05;15.75;;;;;;;;;;7373222;19;20477;-77
2023/01/31 05:05:39;;;;;;;49.92;16.35;;;;;;;;;;7376543;19;20139;-76
2023/01/31 05:08:05;;;;;;;63.58;17.83;;;;;;;;;;7371848;19;19999;-77
2023/01/31 05:10:35;;;;;;;52.78;15.70;;;;;;;;;;7368011;19;20081;-77
2023/01/31 05:13:01;;;;;;;52.97;15.80;;;;;;;;;;7355929;19;20059;-77
2023/01/31 05:15:26;;;;;;;54.13;14.85;;;;;;;;;;7368319;19;20582;-76
2023/01/31 05:18:01;;;;;;;62.78;15.77;;;;;;;;;;7366506;19;20042;-77
2023/01/31 05:20:28;;;;;;;42.72;15.73;;;;;;;;;;7373788;19;20098;-76
2023/01/31 05:22:53;;;;;;;41.38;14.38;;;;;;;;;;7369826;19;20018;-77
2023/01/31 05:25:18;;;;;;;47.75;14.40;;;;;;;;;;7370516;19;20487;-77
2023/01/31 05:27:43;;;;;;;55.77;15.17;;;;;;;;;;7365058;19;20013;-77
2023/01/31 05:30:09;;;;;;;61.50;15.10;;;;;;;;;;7369250;19;20888;-76
2023/01/31 05:32:35;;;;;;;46.88;13.35;;;;;;;;;;7370940;19;20387;-77
2023/01/31 05:35:01;;;;;;;43.45;12.43;;;;;;;;;;7369268;19;20479;-77
2023/01/31 05:37:26;;;;;;;47.70;11.75;;;;;;;;;;7370401;19;19999;-78
2023/01/31 05:39:51;;;;;;;55.42;11.88;;;;;;;;;;7370266;19;20598;-77
2023/01/31 05:42:16;;;;;;;49.67;12.65;;;;;;;;;;7372091;19;20014;-77
2023/01/31 05:44:41;;;;;;;40.25;10.55;;;;;;;;;;7369239;19;20578;-77
2023/01/31 05:47:06;;;;;;;43.53;10.57;;;;;;;;;;7371783;19;20307;-76
2023/01/31 05:49:32;;;;;;;50.03;11.07;;;;;;;;;;7371867;19;20442;-77
2023/01/31 05:51:57;;;;;;;56.40;11.18;;;;;;;;;;7362873;19;20142;-79
2023/01/31 05:54:23;;;;;;;57.15;12.45;;;;;;;;;;7369893;19;20395;-77
2023/01/31 05:56:48;;;;;;;49.20;10.75;;;;;;;;;;7373206;19;20041;-77
2023/01/31 05:59:13;;;;;;;52.00;11.55;;;;;;;;;;7373318;19;20018;-77
2023/01/31 06:01:38;;;;;;;50.15;11.10;;;;;;;;;;7368263;19;19999;-77
2023/01/31 06:04:03;;;;;;;58.80;12.43;;;;;;;;;;7369924;19;20038;-77
2023/01/31 06:06:29;;;;;;;49.65;11.23;;;;;;;;;;7371294;19;20320;-76
2023/01/31 06:08:54;;;;;;;65.72;12.68;;;;;;;;;;7368218;19;20030;-76
2023/01/31 06:11:19;;;;;;;64.55;11.73;;;;;;;;;;7374622;19;20002;-77
2023/01/31 06:13:44;;;;;;;55.45;11.27;;;;;;;;;;7371185;19;20431;-78
2023/01/31 06:16:10;;;;;;;54.20;11.30;;;;;;;;;;7372698;19;20026;-76
2023/01/31 06:18:35;;;;;;;46.72;10.85;;;;;;;;;;7373999;19;20015;-77
2023/01/31 06:21:01;;;;;;;55.00;11.93;;;;;;;;;;7373387;19;20430;-78
2023/01/31 06:23:26;;;;;;;58.03;12.55;;;;;;;;;;7364682;19;20038;-77
2023/01/31 06:25:52;;;;;;;45.53;10.73;;;;;;;;;;7366609;19;20451;-76
2023/01/31 06:28:17;;;;;;;50.72;13.30;;;;;;;;;;7372506;19;20018;-79
2023/01/31 06:30:42;;;;;;;47.33;11.90;;;;;;;;;;7361840;19;20002;-77
2023/01/31 06:33:08;;;;;;;59.78;12.57;;;;;;;;;;7359811;19;20119;-77
2023/01/31 06:35:33;;;;;;;55.97;12.70;;;;;;;;;;7369463;19;20023;-78
2023/01/31 06:37:59;;;;;;;51.40;11.85;;;;;;;;;;7370256;19;20340;-77
2023/01/31 06:40:24;;;;;;;47.90;12.85;;;;;;;;;;7369456;19;20014;-78
2023/01/31 06:42:49;;;;;;;46.45;11.63;;;;;;;;;;7370167;19;20025;-78
2023/01/31 06:45:15;;;;;;;51.78;13.27;;;;;;;;;;7368744;19;20321;-76
2023/01/31 06:47:40;;;;;;;54.85;12.65;;;;;;;;;;7368126;19;20019;-78
2023/01/31 06:50:05;;;;;;;60.90;15.02;;;;;;;;;;7358910;19;20319;-77
2023/01/31 06:52:30;;;;;;;49.03;12.95;;;;;;;;;;7366257;19;20370;-77
2023/01/31 06:54:55;;;;;;;60.05;13.73;;;;;;;;;;7359723;19;20006;-76
2023/01/31 06:57:21;;;;;;;63.20;13.73;;;;;;;;;;7351550;19;20263;-77
2023/01/31 06:59:46;;;;;;;50.05;11.90;;;;;;;;;;7344360;19;20055;-78
2023/01/31 07:02:11;;;;;;;54.50;12.95;;;;;;;;;;7338347;19;20006;-77
2023/01/31 07:04:37;;;;;;;55.50;13.32;;;;;;;;;;7366201;19;20011;-77
2023/01/31 07:07:02;;;;;;;55.83;13.18;;;;;;;;;;7360517;19;20011;-76
2023/01/31 07:09:27;;;;;;;52.90;11.77;;;;;;;;;;7359952;19;20091;-76
2023/01/31 07:11:52;;;;;;;50.50;13.93;;;;;;;;;;7358310;19;20110;-75
2023/01/31 07:14:18;;;;;;;43.63;13.40;;;;;;;;;;7368097;19;20367;-76
2023/01/31 07:16:43;;;;;;;44.78;14.52;;;;;;;;;;7353104;19;20007;-75
2023/01/31 07:19:08;;;;;;;49.72;13.57;;;;;;;;;;7355203;19;20053;-77
2023/01/31 07:21:35;;;;;;;60.42;15.73;;;;;;;;;;7362514;19;20014;-75
2023/01/31 07:24:01;;;;;;;61.10;13.85;;;;;;;;;;7341370;19;20901;-76
2023/01/31 07:26:26;;;;;;;46.35;13.00;;;;;;;;;;7369782;19;20094;-78
2023/01/31 07:28:53;;;;;;;53.50;14.18;;;;;;;;;;7350464;19;20006;-78
2023/01/31 07:31:19;;;;;;;48.50;13.68;;;;;;;;;;7354825;19;20376;-77
2023/01/31 07:33:44;;;;;;;56.08;15.65;;;;;;;;;;7366825;19;19999;-77
2023/01/31 07:36:12;;;;;;;46.15;13.93;;;;;;;;;;7366681;19;20078;-78
2023/01/31 07:38:37;;;;;;;39.83;13.20;;;;;;;;;;7367459;19;20037;-79
2023/01/31 07:41:03;;;;;;;46.10;14.00;;;;;;;;;;7360594;19;20637;-77
2023/01/31 07:43:29;;;;;;;50.58;13.40;;;;;;;;;;7367709;19;20079;-77
2023/01/31 07:45:54;;;;;;;43.50;14.98;;;;;;;;;;7364312;19;20440;-79
2023/01/31 07:48:22;;;;;;;40.60;11.93;;;;;;;;;;7369033;19;20434;-79
2023/01/31 07:50:51;;;;;;;43.65;13.63;;;;;;;;;;7365472;19;20018;-80
2023/01/31 07:53:16;;;;;;;43.08;12.93;;;;;;;;;;7369673;19;20466;-77
2023/01/31 07:55:46;;;;;;;38.13;11.73;;;;;;;;;;7361329;19;20130;-78
2023/01/31 07:58:11;;;;;;;42.30;12.50;;;;;;;;;;7366587;19;20022;-79
2023/01/31 08:03:31;;;;;;;41.40;11.80;;;;;;;;;;7369072;19;20013;-79
2023/01/31 08:05:57;;;;;;;40.13;11.68;;;;;;;;;;7369430;19;19999;-77
2023/01/31 08:08:22;;;;;;;41.78;12.32;;;;;;;;;;7346134;19;20034;-78
2023/01/31 08:10:47;;;;;;;38.78;12.50;;;;;;;;;;7367477;19;20019;-79
2023/01/31 08:13:12;;;;;;;38.38;12.82;;;;;;;;;;7365418;19;20017;-76
2023/01/31 08:15:38;;;;;;;34.90;12.80;;;;;;;;;;7370340;19;19998;-77
2023/01/31 08:18:03;;;;;;;33.47;12.75;;;;;;;;;;7363877;19;20026;-77
2023/01/31 08:20:29;;;;;;;37.03;13.05;;;;;;;;;;7366663;19;20003;-79
2023/01/31 08:22:57;;;;;;;36.00;11.77;;;;;;;;;;7368189;19;20301;-80
2023/01/31 08:25:22;;;;;;;34.47;13.15;;;;;;;;;;7367292;19;20059;-77
2023/01/31 08:27:47;;;;;;;30.60;11.30;;;;;;;;;;7369324;19;20041;-78
2023/01/31 08:30:12;;;;;;;32.65;11.40;;;;;;;;;;7363595;19;20455;-79
2023/01/31 08:32:37;;;;;;;31.77;11.93;;;;;;;;;;7362622;19;20022;-77
2023/01/31 08:35:03;;;;;;;30.90;10.93;;;;;;;;;;7365773;19;20343;-78
2023/01/31 08:37:28;;;;;;;28.05;9.85;;;;;;;;;;7363583;19;20037;-77
2023/01/31 08:39:53;;;;;;;31.70;10.50;;;;;;;;;;7364808;19;20018;-78
2023/01/31 08:42:18;;;;;;;27.77;10.85;;;;;;;;;;7362776;19;20120;-78
2023/01/31 08:44:44;;;;;;;35.75;10.52;;;;;;;;;;7367614;19;20252;-77
2023/01/31 08:47:09;;;;;;;32.63;9.10;;;;;;;;;;7361337;19;20017;-78
2023/01/31 08:49:35;;;;;;;34.63;10.23;;;;;;;;;;7342609;19;20063;-78
2023/01/31 08:52:01;;;;;;;28.30;10.07;;;;;;;;;;7374005;19;20264;-77
2023/01/31 08:54:26;;;;;;;30.10;10.55;;;;;;;;;;7369047;19;20033;-77
2023/01/31 08:56:51;;;;;;;27.67;9.50;;;;;;;;;;7374277;19;20338;-78
2023/01/31 08:59:16;;;;;;;28.85;10.35;;;;;;;;;;7375433;19;20397;-78
2023/01/31 09:01:44;;;;;;;31.10;10.15;;;;;;;;;;7368512;19;20122;-78
2023/01/31 09:04:09;;;;;;;33.97;10.52;;;;;;;;;;7374905;19;20054;-78
2023/01/31 09:06:34;;;;;;;30.40;11.20;;;;;;;;;;7374131;19;20030;-77
2023/01/31 09:09:00;;;;;;;33.60;10.88;;;;;;;;;;7370074;19;20006;-78
2023/01/31 09:11:26;;;;;;;30.30;10.52;;;;;;;;;;7377163;19;20862;-77
2023/01/31 09:13:51;;;;;;;31.40;11.45;;;;;;;;;;7375585;19;20418;-79
2023/01/31 09:16:18;;;;;;;32.90;10.93;;;;;;;;;;7368215;19;20010;-77
2023/01/31 09:18:43;;;;;;;30.75;11.38;;;;;;;;;;7375730;19;20006;-77
2023/01/31 09:21:09;;;;;;;24.23;10.30;;;;;;;;;;7370850;19;20451;-77
2023/01/31 09:23:35;;;;;;;30.20;11.85;;;;;;;;;;7375316;19;20082;-77
2023/01/31 09:26:00;;;;;;;28.40;12.05;;;;;;;;;;7370178;19;20018;-78
2023/01/31 09:28:26;;;;;;;31.88;11.55;;;;;;;;;;7375192;19;20763;-78
2023/01/31 09:30:54;;;;;;;36.42;12.25;;;;;;;;;;7368029;19;20130;-78
2023/01/31 09:33:20;;;;;;;30.00;12.43;;;;;;;;;;7374533;19;20035;-77
2023/01/31 09:35:59;;;;;;;32.85;13.50;;;;;;;;;;7374237;19;20565;-77
2023/01/31 09:38:24;;;;;;;36.45;13.77;;;;;;;;;;7372664;19;20073;-78
2023/01/31 09:40:50;;;;;;;36.47;13.15;;;;;;;;;;7369810;19;20027;-76
2023/01/31 09:43:16;;;;;;;32.78;13.52;;;;;;;;;;7371617;19;20370;-79
2023/01/31 09:45:43;;;;;;;29.88;12.88;;;;;;;;;;7374976;19;20562;-78
2023/01/31 09:48:12;;;;;;;30.65;13.05;;;;;;;;;;7369885;19;20562;-78
2023/01/31 09:50:37;;;;;;;35.42;13.38;;;;;;;;;;7371024;19;20098;-78
2023/01/31 09:53:03;;;;;;;32.72;12.80;;;;;;;;;;7371776;19;20427;-79
2023/01/31 09:55:34;;;;;;;41.78;14.35;;;;;;;;;;7375719;19;20038;-78
2023/01/31 09:57:59;;;;;;;35.55;14.75;;;;;;;;;;7351073;19;20108;-78
2023/01/31 10:00:31;;;;;;;39.42;14.73;;;;;;;;;;7372630;19;20010;-78
2023/01/31 10:03:17;;;;;;;35.58;14.23;;;;;;;;;;7366985;19;20034;-77
2023/01/31 10:06:01;;;;;;;41.45;15.80;;;;;;;;;;7373817;19;20490;-77
2023/01/31 10:08:26;;;;;;;;;;;;;;;;;;7374291;19;20034;-77
2023/01/31 10:10:53;;;;;;;39.60;15.85;;;;;;;;;;7368584;19;19958;-77
2023/01/31 10:13:35;;;;;;;47.60;16.48;;;;;;;;;;7372232;19;20015;-78
2023/01/31 10:16:12;;;;;;;35.40;16.52;;;;;;;;;;7368846;19;20377;-77
2023/01/31 10:18:40;;;;;;;37.92;16.13;;;;;;;;;;7371899;19;20014;-77
2023/01/31 10:21:09;;;;;;;42.75;15.98;;;;;;;;;;7373084;19;19999;-77
2023/01/31 10:23:37;;;;;;;45.88;17.38;;;;;;;;;;7369326;19;20025;-77
2023/01/31 10:26:05;;;;;;;41.85;17.05;;;;;;;;;;7372250;19;20367;-78
2023/01/31 10:28:53;;;;;;;47.05;18.10;;;;;;;;;;7370518;19;20468;-77
2023/01/31 10:31:31;;;;;;;46.53;17.73;;;;;;;;;;7365774;19;20328;-77
2023/01/31 10:34:05;;;;;;;42.17;18.13;;;;;;;;;;7372935;19;20007;-77
2023/01/31 10:36:36;;;;;;;49.75;18.25;;;;;;;;;;7373580;19;20034;-77
2023/01/31 10:39:22;;;;;;;40.70;18.15;;;;;;;;;;7369335;19;20013;-77
2023/01/31 10:41:53;;;;;;;44.10;18.15;;;;;;;;;;7370670;19;20018;-77
2023/01/31 10:44:37;;;;;;;43.03;16.92;;;;;;;;;;7367183;19;20031;-78
2023/01/31 10:47:09;;;;;;;45.08;18.52;;;;;;;;;;7367112;19;20090;-77
2023/01/31 10:49:35;;;;;;;41.00;18.33;;;;;;;;;;7371409;19;20003;-77
2023/01/31 10:52:22;;;;;;;43.75;17.35;;;;;;;;;;7370760;19;20022;-77
2023/01/31 10:55:01;;;;;;;48.80;18.15;;;;;;;;;;7369374;19;19995;-77
2023/01/31 10:57:26;;;;;;;50.80;18.98;;;;;;;;;;7367543;19;20010;-77
2023/01/31 10:59:52;;;;;;;46.85;19.48;;;;;;;;;;7371868;19;20009;-77
2023/01/31 11:02:24;;;;;;;49.63;19.05;;;;;;;;;;7363370;19;20059;-77
2023/01/31 11:04:51;;;;;;;47.85;18.65;;;;;;;;;;7369493;19;20105;-76
2023/01/31 11:07:17;;;;;;;43.15;18.50;;;;;;;;;;7369106;19;20409;-76
2023/01/31 11:09:45;;;;;;;49.78;18.45;;;;;;;;;;7364936;19;20021;-76
2023/01/31 11:12:11;;;;;;;45.85;18.33;;;;;;;;;;7367009;19;20443;-76
2023/01/31 11:14:36;;;;;;;42.38;18.15;;;;;;;;;;7370413;19;20005;-75
2023/01/31 11:17:03;;;;;;;53.58;18.73;;;;;;;;;;7363419;19;20014;-76
2023/01/31 11:19:28;;;;;;;51.25;20.70;;;;;;;;;;7370305;19;19995;-76
2023/01/31 11:21:54;;;;;;;45.83;18.25;;;;;;;;;;7368957;19;20021;-76
2023/01/31 11:24:23;;;;;;;47.90;18.50;;;;;;;;;;7364090;19;20144;-77
2023/01/31 11:26:56;;;;;;;42.10;18.20;;;;;;;;;;7370536;19;20042;-76
2023/01/31 11:29:48;;;;;;;51.85;19.23;;;;;;;;;;7364498;19;20369;-76
2023/01/31 11:32:19;;;;;;;45.47;18.48;;;;;;;;;;7350985;19;20003;-76
2023/01/31 11:34:54;;;;;;;45.08;16.80;;;;;;;;;;7363002;19;20030;-76
2023/01/31 11:37:19;;;;;;;45.67;19.48;;;;;;;;;;7365529;19;20444;-77
2023/01/31 11:39:53;;;;;;;40.97;17.85;;;;;;;;;;7368376;19;20066;-76
2023/01/31 11:42:18;;;;;;;48.75;18.80;;;;;;;;;;7366693;19;20409;-75
2023/01/31 11:44:52;;;;;;;44.20;18.63;;;;;;;;;;7352977;19;20071;-76
2023/01/31 11:47:18;;;;;;;39.38;18.95;;;;;;;;;;7353421;19;20623;-75
2023/01/31 11:49:46;;;;;;;54.80;18.63;;;;;;;;;;7365507;19;20120;-76
2023/01/31 11:52:12;;;;;;;54.17;20.13;;;;;;;;;;7364701;19;20015;-76
2023/01/31 11:54:39;;;;;;;44.90;19.85;;;;;;;;;;7351901;19;20123;-76
2023/01/31 11:57:12;;;;;;;49.05;20.23;;;;;;;;;;7357281;19;20017;-75
2023/01/31 11:59:37;;;;;;;50.83;20.85;;;;;;;;;;7362362;19;20028;-76
2023/01/31 12:02:03;;;;;;;44.75;17.95;;;;;;;;;;7359935;19;20094;-76
2023/01/31 12:04:30;;;;;;;41.15;17.48;;;;;;;;;;7367351;19;20039;-76
2023/01/31 12:06:57;;;;;;;54.05;18.95;;;;;;;;;;7366054;19;20134;-77
2023/01/31 12:09:24;;;;;;;42.22;18.90;;;;;;;;;;7359200;19;20942;-76
2023/01/31 12:11:50;;;;;;;42.30;17.80;;;;;;;;;;7367002;19;20046;-76
2023/01/31 12:14:18;;;;;;;46.65;17.33;;;;;;;;;;7366808;19;19998;-76
2023/01/31 12:16:44;;;;;;;39.10;18.45;;;;;;;;;;7359802;19;20143;-76
2023/01/31 12:19:11;;;;;;;45.40;18.15;;;;;;;;;;7366839;19;20071;-76
2023/01/31 12:21:55;;;;;;;35.72;16.58;;;;;;;;;;7368355;19;20019;-76
2023/01/31 12:24:20;;;;;;;37.40;16.90;;;;;;;;;;7361532;19;20003;-76
2023/01/31 12:26:48;;;;;;;41.40;17.30;;;;;;;;;;7371889;19;20026;-76
2023/01/31 12:29:13;;;;;;;44.53;18.05;;;;;;;;;;7371585;19;20002;-76
2023/01/31 12:31:49;;;;;;;41.63;17.42;;;;;;;;;;7370272;19;20006;-76
2023/01/31 12:34:25;;;;;;;43.38;18.88;;;;;;;;;;7371871;19;20014;-76
2023/01/31 12:36:50;;;;;;;47.33;18.60;;;;;;;;;;7374357;19;20035;-77
2023/01/31 12:39:34;;;;;;;45.23;17.73;;;;;;;;;;7364731;19;20014;-76
2023/01/31 12:42:12;;;;;;;46.28;17.70;;;;;;;;;;7363232;19;20691;-76
2023/01/31 12:44:48;;;;;;;46.38;18.23;;;;;;;;;;7369086;19;20627;-76
2023/01/31 12:47:32;;;;;;;43.25;18.40;;;;;;;;;;7366925;19;20018;-76
2023/01/31 12:50:15;;;;;;;36.45;16.88;;;;;;;;;;7372150;19;20385;-76
2023/01/31 12:52:58;;;;;;;34.78;15.38;;;;;;;;;;7371296;19;20034;-77
2023/01/31 12:55:28;;;;;;;36.00;16.73;;;;;;;;;;7373504;19;20006;-76
2023/01/31 12:58:05;;;;;;;36.25;16.08;;;;;;;;;;7372982;19;21125;-77
2023/01/31 13:00:41;;;;;;;35.72;15.38;;;;;;;;;;7360169;19;20286;-77
2023/01/31 13:03:06;;;;;;;34.88;15.73;;;;;;;;;;7364114;19;20050;-77
2023/01/31 13:05:43;;;;;;;30.90;15.18;;;;;;;;;;7361690;19;20029;-77
2023/01/31 13:08:17;;;;;;;28.48;14.15;;;;;;;;;;7371245;19;20553;-77
2023/01/31 13:10:44;;;;;;;26.65;14.20;;;;;;;;;;7369591;19;20008;-77
2023/01/31 13:13:29;;;;;;;28.13;13.75;;;;;;;;;;7368045;19;20019;-78
2023/01/31 13:15:58;;;;;;;31.30;13.32;;;;;;;;;;7366513;19;20007;-77
2023/01/31 13:18:23;;;;;;;29.67;12.65;;;;;;;;;;7371405;19;20026;-77
2023/01/31 13:20:51;;;;;;;28.35;12.45;;;;;;;;;;7373838;19;20006;-77
2023/01/31 13:23:28;;;;;;;32.50;12.90;;;;;;;;;;7365441;19;20139;-76
2023/01/31 13:25:56;;;;;;;28.73;13.30;;;;;;;;;;7373384;19;20011;-77
2023/01/31 13:28:27;;;;;;;26.20;12.30;;;;;;;;;;7369039;19;19990;-77
2023/01/31 13:31:00;;;;;;;19.40;10.75;;;;;;;;;;7363790;19;20564;-77
2023/01/31 13:33:36;;;;;;;27.95;11.40;;;;;;;;;;7372175;19;20438;-77
2023/01/31 13:36:05;;;;;;;24.50;11.98;;;;;;;;;;7372339;19;20387;-78
2023/01/31 13:38:34;;;;;;;26.10;11.75;;;;;;;;;;7366207;19;20408;-77
2023/01/31 13:41:00;;;;;;;23.45;10.57;;;;;;;;;;7371504;19;20029;-77
2023/01/31 13:43:25;;;;;;;21.10;9.98;;;;;;;;;;7371878;19;20022;-77
2023/01/31 13:45:54;;;;;;;24.60;11.07;;;;;;;;;;7370191;19;20025;-78
2023/01/31 13:48:23;;;;;;;21.52;10.02;;;;;;;;;;7371991;19;20019;-77
2023/01/31 13:51:01;;;;;;;21.52;9.68;;;;;;;;;;7372646;19;20034;-77
2023/01/31 13:53:39;;;;;;;19.48;9.45;;;;;;;;;;7369959;19;20523;-77
2023/01/31 13:56:08;;;;;;;22.50;9.95;;;;;;;;;;7365062;19;20026;-77
2023/01/31 13:58:34;;;;;;;16.63;8.57;;;;;;;;;;7374517;19;20007;-77
2023/01/31 14:01:06;;;;;;;19.80;8.90;;;;;;;;;;7368942;19;20574;-77
2023/01/31 14:03:51;;;;;;;20.52;9.15;;;;;;;;;;7367912;19;20423;-77
2023/01/31 14:06:16;;;;;;;16.20;9.13;;;;;;;;;;7369978;19;20001;-77
2023/01/31 14:08:50;;;;;;;17.77;9.30;;;;;;;;;;7373393;19;20391;-77
2023/01/31 14:11:15;;;;;;;16.90;8.93;;;;;;;;;;7368629;19;20003;-77
2023/01/31 14:13:42;;;;;;;16.42;9.15;;;;;;;;;;7361641;19;20013;-77
2023/01/31 14:16:32;;;;;;;15.82;8.75;;;;;;;;;;7363636;19;20006;-77
2023/01/31 14:18:57;;;;;;;13.60;8.60;;;;;;;;;;7369186;19;20266;-77
2023/01/31 14:21:29;;;;;;;16.15;8.95;;;;;;;;;;7368594;19;20016;-77
2023/01/31 14:24:01;;;;;;;15.77;8.25;;;;;;;;;;7370366;19;20743;-77
2023/01/31 14:26:41;;;;;;;15.82;8.88;;;;;;;;;;7366935;19;20011;-77
2023/01/31 14:29:17;;;;;;;13.90;7.65;;;;;;;;;;7362404;19;20033;-77
2023/01/31 14:31:43;;;;;;;14.68;8.52;;;;;;;;;;7367636;19;20016;-77
2023/01/31 14:34:19;;;;;;;16.85;8.80;;;;;;;;;;7369996;19;20010;-78